sensor_id;sensor_type;location;lat;lon;timestamp;P1;durP1;ratioP1;P2;durP2;ratioP2
21018;SDS011;10667;51.056;3.732;2023-12-04T00:02:03;14.73;;;7.85;;
21018;SDS011;10667;51.056;3.732;2023-12-04T00:04:29;14.82;;;8.93;;
21018;SDS011;10667;51.056;3.732;2023-12-04T00:06:55;13.63;;;8.57;;
21018;SDS011;10667;51.056;3.732;2023-12-04T00:09:20;15.18;;;8.88;;
21018;SDS011;10667;51.056;3.732;2023-12-04T00:11:48;15.05;;;9.30;;
21018;SDS011;10667;51.056;3.732;2023-12-04T00:14:14;16.60;;;8.77;;
21018;SDS011;10667;51.056;3.732;2023-12-04T00:16:39;17.80;;;8.23;;
21018;SDS011;10667;51.056;3.732;2023-12-04T00:19:05;14.40;;;8.07;;
21018;SDS011;10667;51.056;3.732;2023-12-04T00:21:31;15.07;;;8.30;;
21018;SDS011;10667;51.056;3.732;2023-12-04T00:23:57;13.57;;;8.18;;
21018;SDS011;10667;51.056;3.732;2023-12-04T00:26:23;13.25;;;7.97;;
21018;SDS011;10667;51.056;3.732;2023-12-04T00:28:48;13.30;;;7.93;;
21018;SDS011;10667;51.056;3.732;2023-12-04T00:31:14;13.88;;;8.15;;
21018;SDS011;10667;51.056;3.732;2023-12-04T00:33:40;12.15;;;7.70;;
21018;SDS011;10667;51.056;3.732;2023-12-04T00:36:05;11.98;;;8.00;;
21018;SDS011;10667;51.056;3.732;2023-12-04T00:38:31;16.38;;;7.63;;
21018;SDS011;10667;51.056;3.732;2023-12-04T00:40:57;13.73;;;7.38;;
21018;SDS011;10667;51.056;3.732;2023-12-04T00:43:22;12.73;;;8.30;;
21018;SDS011;10667;51.056;3.732;2023-12-04T00:45:48;11.98;;;7.63;;
21018;SDS011;10667;51.056;3.732;2023-12-04T00:48:13;14.75;;;8.68;;
21018;SDS011;10667;51.056;3.732;2023-12-04T00:50:39;16.10;;;8.35;;
21018;SDS011;10667;51.056;3.732;2023-12-04T00:53:05;14.20;;;8.00;;
21018;SDS011;10667;51.056;3.732;2023-12-04T00:55:30;12.38;;;8.18;;
21018;SDS011;10667;51.056;3.732;2023-12-04T00:57:56;14.85;;;8.30;;
21018;SDS011;10667;51.056;3.732;2023-12-04T01:00:21;13.63;;;8.13;;
21018;SDS011;10667;51.056;3.732;2023-12-04T01:02:47;12.32;;;7.63;;
21018;SDS011;10667;51.056;3.732;2023-12-04T01:05:13;13.95;;;7.18;;
21018;SDS011;10667;51.056;3.732;2023-12-04T01:07:38;12.98;;;7.78;;
21018;SDS011;10667;51.056;3.732;2023-12-04T01:10:04;13.45;;;7.85;;
21018;SDS011;10667;51.056;3.732;2023-12-04T01:12:30;12.48;;;7.78;;
21018;SDS011;10667;51.056;3.732;2023-12-04T01:14:56;15.55;;;8.15;;
21018;SDS011;10667;51.056;3.732;2023-12-04T01:17:21;13.85;;;7.97;;
21018;SDS011;10667;51.056;3.732;2023-12-04T01:19:47;12.32;;;7.25;;
21018;SDS011;10667;51.056;3.732;2023-12-04T01:22:13;15.80;;;8.00;;
21018;SDS011;10667;51.056;3.732;2023-12-04T01:24:38;11.50;;;7.22;;
21018;SDS011;10667;51.056;3.732;2023-12-04T01:27:04;14.80;;;7.38;;
21018;SDS011;10667;51.056;3.732;2023-12-04T01:29:30;11.60;;;6.85;;
21018;SDS011;10667;51.056;3.732;2023-12-04T01:31:57;11.95;;;6.72;;
21018;SDS011;10667;51.056;3.732;2023-12-04T01:34:22;12.80;;;7.18;;
21018;SDS011;10667;51.056;3.732;2023-12-04T01:36:48;10.95;;;6.63;;
21018;SDS011;10667;51.056;3.732;2023-12-04T01:39:13;13.35;;;7.35;;
21018;SDS011;10667;51.056;3.732;2023-12-04T01:41:40;8.88;;;6.68;;
21018;SDS011;10667;51.056;3.732;2023-12-04T01:44:06;10.13;;;6.75;;
21018;SDS011;10667;51.056;3.732;2023-12-04T01:46:32;12.95;;;6.95;;
21018;SDS011;10667;51.056;3.732;2023-12-04T01:48:58;12.93;;;7.22;;
21018;SDS011;10667;51.056;3.732;2023-12-04T01:51:25;11.13;;;7.13;;
21018;SDS011;10667;51.056;3.732;2023-12-04T01:53:52;13.25;;;7.75;;
21018;SDS011;10667;51.056;3.732;2023-12-04T01:56:18;15.50;;;8.00;;
21018;SDS011;10667;51.056;3.732;2023-12-04T01:58:45;10.57;;;6.47;;
21018;SDS011;10667;51.056;3.732;2023-12-04T02:01:11;12.13;;;6.93;;
21018;SDS011;10667;51.056;3.732;2023-12-04T02:03:37;10.90;;;6.90;;
21018;SDS011;10667;51.056;3.732;2023-12-04T02:06:03;11.35;;;6.88;;
21018;SDS011;10667;51.056;3.732;2023-12-04T02:08:30;11.82;;;7.07;;
21018;SDS011;10667;51.056;3.732;2023-12-04T02:10:56;11.73;;;7.13;;
21018;SDS011;10667;51.056;3.732;2023-12-04T02:13:21;10.82;;;7.13;;
21018;SDS011;10667;51.056;3.732;2023-12-04T02:15:48;12.27;;;7.38;;
21018;SDS011;10667;51.056;3.732;2023-12-04T02:18:17;12.90;;;7.22;;
21018;SDS011;10667;51.056;3.732;2023-12-04T02:20:43;11.95;;;6.82;;
21018;SDS011;10667;51.056;3.732;2023-12-04T02:23:09;10.95;;;6.63;;
21018;SDS011;10667;51.056;3.732;2023-12-04T02:25:34;12.63;;;7.60;;
21018;SDS011;10667;51.056;3.732;2023-12-04T02:28:01;11.68;;;6.90;;
21018;SDS011;10667;51.056;3.732;2023-12-04T02:30:30;12.65;;;7.40;;
21018;SDS011;10667;51.056;3.732;2023-12-04T02:32:56;13.25;;;6.68;;
21018;SDS011;10667;51.056;3.732;2023-12-04T02:35:24;11.45;;;6.97;;
21018;SDS011;10667;51.056;3.732;2023-12-04T02:37:52;11.98;;;6.97;;
21018;SDS011;10667;51.056;3.732;2023-12-04T02:40:19;11.35;;;6.88;;
21018;SDS011;10667;51.056;3.732;2023-12-04T02:42:45;12.68;;;7.80;;
21018;SDS011;10667;51.056;3.732;2023-12-04T02:45:10;10.18;;;6.57;;
21018;SDS011;10667;51.056;3.732;2023-12-04T02:47:36;9.60;;;6.93;;
21018;SDS011;10667;51.056;3.732;2023-12-04T02:50:02;10.25;;;6.78;;
21018;SDS011;10667;51.056;3.732;2023-12-04T02:52:28;12.18;;;6.88;;
21018;SDS011;10667;51.056;3.732;2023-12-04T02:54:53;12.55;;;7.55;;
21018;SDS011;10667;51.056;3.732;2023-12-04T02:57:19;12.07;;;7.20;;
21018;SDS011;10667;51.056;3.732;2023-12-04T02:59:45;10.68;;;6.13;;
21018;SDS011;10667;51.056;3.732;2023-12-04T03:02:11;10.32;;;6.85;;
21018;SDS011;10667;51.056;3.732;2023-12-04T03:04:36;11.93;;;6.82;;
21018;SDS011;10667;51.056;3.732;2023-12-04T03:07:02;10.13;;;5.68;;
21018;SDS011;10667;51.056;3.732;2023-12-04T03:09:27;10.32;;;6.38;;
21018;SDS011;10667;51.056;3.732;2023-12-04T03:11:53;10.55;;;6.47;;
21018;SDS011;10667;51.056;3.732;2023-12-04T03:14:19;12.65;;;6.38;;
21018;SDS011;10667;51.056;3.732;2023-12-04T03:16:44;9.77;;;5.82;;
21018;SDS011;10667;51.056;3.732;2023-12-04T03:19:10;9.05;;;5.68;;
21018;SDS011;10667;51.056;3.732;2023-12-04T03:21:36;9.57;;;5.97;;
21018;SDS011;10667;51.056;3.732;2023-12-04T03:24:01;9.23;;;6.05;;
21018;SDS011;10667;51.056;3.732;2023-12-04T03:26:27;9.23;;;5.90;;
21018;SDS011;10667;51.056;3.732;2023-12-04T03:28:53;10.38;;;6.22;;
21018;SDS011;10667;51.056;3.732;2023-12-04T03:31:19;9.43;;;6.03;;
21018;SDS011;10667;51.056;3.732;2023-12-04T03:33:45;11.38;;;6.20;;
21018;SDS011;10667;51.056;3.732;2023-12-04T03:36:11;9.35;;;6.03;;
21018;SDS011;10667;51.056;3.732;2023-12-04T03:38:37;10.23;;;6.25;;
21018;SDS011;10667;51.056;3.732;2023-12-04T03:41:02;10.82;;;5.65;;
21018;SDS011;10667;51.056;3.732;2023-12-04T03:43:28;13.10;;;6.47;;
21018;SDS011;10667;51.056;3.732;2023-12-04T03:45:54;11.68;;;5.97;;
21018;SDS011;10667;51.056;3.732;2023-12-04T03:48:20;10.80;;;6.03;;
21018;SDS011;10667;51.056;3.732;2023-12-04T03:50:45;9.63;;;6.07;;
21018;SDS011;10667;51.056;3.732;2023-12-04T03:53:11;8.68;;;5.90;;
21018;SDS011;10667;51.056;3.732;2023-12-04T03:55:37;8.80;;;6.22;;
21018;SDS011;10667;51.056;3.732;2023-12-04T03:58:03;9.63;;;6.28;;
21018;SDS011;10667;51.056;3.732;2023-12-04T04:00:28;9.77;;;6.32;;
21018;SDS011;10667;51.056;3.732;2023-12-04T04:02:54;9.93;;;6.20;;
21018;SDS011;10667;51.056;3.732;2023-12-04T04:05:20;10.48;;;6.30;;
21018;SDS011;10667;51.056;3.732;2023-12-04T04:07:45;9.63;;;6.50;;
21018;SDS011;10667;51.056;3.732;2023-12-04T04:10:11;10.32;;;6.25;;
21018;SDS011;10667;51.056;3.732;2023-12-04T04:12:37;10.88;;;6.28;;
21018;SDS011;10667;51.056;3.732;2023-12-04T04:15:03;11.13;;;6.07;;
21018;SDS011;10667;51.056;3.732;2023-12-04T04:17:28;10.68;;;6.32;;
21018;SDS011;10667;51.056;3.732;2023-12-04T04:19:54;10.02;;;6.03;;
21018;SDS011;10667;51.056;3.732;2023-12-04T04:22:21;9.85;;;6.47;;
21018;SDS011;10667;51.056;3.732;2023-12-04T04:24:47;10.23;;;5.97;;
21018;SDS011;10667;51.056;3.732;2023-12-04T04:27:14;10.07;;;6.18;;
21018;SDS011;10667;51.056;3.732;2023-12-04T04:29:39;9.60;;;6.05;;
21018;SDS011;10667;51.056;3.732;2023-12-04T04:32:05;7.60;;;5.63;;
21018;SDS011;10667;51.056;3.732;2023-12-04T04:34:31;10.02;;;6.10;;
21018;SDS011;10667;51.056;3.732;2023-12-04T04:36:57;9.43;;;5.72;;
21018;SDS011;10667;51.056;3.732;2023-12-04T04:39:23;9.57;;;6.05;;
21018;SDS011;10667;51.056;3.732;2023-12-04T04:41:48;8.93;;;6.05;;
21018;SDS011;10667;51.056;3.732;2023-12-04T04:44:14;8.50;;;5.40;;
21018;SDS011;10667;51.056;3.732;2023-12-04T04:46:40;9.35;;;5.53;;
21018;SDS011;10667;51.056;3.732;2023-12-04T04:49:05;10.40;;;5.85;;
21018;SDS011;10667;51.056;3.732;2023-12-04T04:51:34;9.95;;;6.07;;
21018;SDS011;10667;51.056;3.732;2023-12-04T04:54:00;8.35;;;5.55;;
21018;SDS011;10667;51.056;3.732;2023-12-04T04:56:26;9.07;;;5.78;;
21018;SDS011;10667;51.056;3.732;2023-12-04T04:58:51;7.95;;;5.65;;
21018;SDS011;10667;51.056;3.732;2023-12-04T05:01:17;9.80;;;5.65;;
21018;SDS011;10667;51.056;3.732;2023-12-04T05:03:43;8.50;;;5.25;;
21018;SDS011;10667;51.056;3.732;2023-12-04T05:06:08;9.40;;;5.78;;
21018;SDS011;10667;51.056;3.732;2023-12-04T05:08:34;8.55;;;5.90;;
21018;SDS011;10667;51.056;3.732;2023-12-04T05:11:00;9.98;;;6.32;;
21018;SDS011;10667;51.056;3.732;2023-12-04T05:13:25;8.25;;;5.55;;
21018;SDS011;10667;51.056;3.732;2023-12-04T05:15:51;8.70;;;5.50;;
21018;SDS011;10667;51.056;3.732;2023-12-04T05:18:17;9.52;;;5.55;;
21018;SDS011;10667;51.056;3.732;2023-12-04T05:20:43;10.27;;;5.53;;
21018;SDS011;10667;51.056;3.732;2023-12-04T05:23:08;9.52;;;5.38;;
21018;SDS011;10667;51.056;3.732;2023-12-04T05:25:34;7.45;;;5.05;;
21018;SDS011;10667;51.056;3.732;2023-12-04T05:27:59;10.75;;;5.72;;
21018;SDS011;10667;51.056;3.732;2023-12-04T05:30:25;8.15;;;4.97;;
21018;SDS011;10667;51.056;3.732;2023-12-04T05:32:51;8.48;;;5.03;;
21018;SDS011;10667;51.056;3.732;2023-12-04T05:35:16;8.93;;;5.50;;
21018;SDS011;10667;51.056;3.732;2023-12-04T05:37:42;10.18;;;5.13;;
21018;SDS011;10667;51.056;3.732;2023-12-04T05:40:08;9.07;;;5.03;;
21018;SDS011;10667;51.056;3.732;2023-12-04T05:42:36;8.32;;;5.28;;
21018;SDS011;10667;51.056;3.732;2023-12-04T05:45:01;9.85;;;5.70;;
21018;SDS011;10667;51.056;3.732;2023-12-04T05:47:27;7.10;;;4.88;;
21018;SDS011;10667;51.056;3.732;2023-12-04T05:49:53;6.38;;;4.90;;
21018;SDS011;10667;51.056;3.732;2023-12-04T05:52:19;6.57;;;4.57;;
21018;SDS011;10667;51.056;3.732;2023-12-04T05:54:45;8.15;;;4.85;;
21018;SDS011;10667;51.056;3.732;2023-12-04T05:57:11;9.40;;;5.20;;
21018;SDS011;10667;51.056;3.732;2023-12-04T05:59:36;8.70;;;5.30;;
21018;SDS011;10667;51.056;3.732;2023-12-04T06:02:02;9.85;;;5.43;;
21018;SDS011;10667;51.056;3.732;2023-12-04T06:04:28;6.40;;;4.93;;
21018;SDS011;10667;51.056;3.732;2023-12-04T06:06:53;10.82;;;4.93;;
21018;SDS011;10667;51.056;3.732;2023-12-04T06:09:19;9.98;;;4.97;;
21018;SDS011;10667;51.056;3.732;2023-12-04T06:11:44;12.73;;;5.57;;
21018;SDS011;10667;51.056;3.732;2023-12-04T06:14:10;11.40;;;5.00;;
21018;SDS011;10667;51.056;3.732;2023-12-04T06:16:36;13.23;;;5.15;;
21018;SDS011;10667;51.056;3.732;2023-12-04T06:19:02;10.35;;;5.20;;
21018;SDS011;10667;51.056;3.732;2023-12-04T06:21:29;8.35;;;5.13;;
21018;SDS011;10667;51.056;3.732;2023-12-04T06:23:55;14.38;;;5.28;;
21018;SDS011;10667;51.056;3.732;2023-12-04T06:26:22;7.30;;;4.78;;
21018;SDS011;10667;51.056;3.732;2023-12-04T06:28:48;7.28;;;4.82;;
21018;SDS011;10667;51.056;3.732;2023-12-04T06:31:14;7.93;;;5.03;;
21018;SDS011;10667;51.056;3.732;2023-12-04T06:33:40;9.63;;;5.25;;
21018;SDS011;10667;51.056;3.732;2023-12-04T06:36:06;9.23;;;5.40;;
21018;SDS011;10667;51.056;3.732;2023-12-04T06:38:32;15.32;;;5.55;;
21018;SDS011;10667;51.056;3.732;2023-12-04T06:41:01;7.40;;;5.00;;
21018;SDS011;10667;51.056;3.732;2023-12-04T06:43:27;8.32;;;5.20;;
21018;SDS011;10667;51.056;3.732;2023-12-04T06:45:53;7.25;;;5.03;;
21018;SDS011;10667;51.056;3.732;2023-12-04T06:48:22;7.85;;;5.68;;
21018;SDS011;10667;51.056;3.732;2023-12-04T06:50:48;9.38;;;5.18;;
21018;SDS011;10667;51.056;3.732;2023-12-04T06:53:13;8.93;;;5.45;;
21018;SDS011;10667;51.056;3.732;2023-12-04T06:55:39;7.88;;;5.40;;
21018;SDS011;10667;51.056;3.732;2023-12-04T06:58:05;12.35;;;5.68;;
21018;SDS011;10667;51.056;3.732;2023-12-04T07:00:30;23.00;;;5.97;;
21018;SDS011;10667;51.056;3.732;2023-12-04T07:02:56;8.23;;;4.97;;
21018;SDS011;10667;51.056;3.732;2023-12-04T07:05:21;7.32;;;5.38;;
21018;SDS011;10667;51.056;3.732;2023-12-04T07:07:47;8.25;;;5.47;;
21018;SDS011;10667;51.056;3.732;2023-12-04T07:10:13;8.18;;;4.90;;
21018;SDS011;10667;51.056;3.732;2023-12-04T07:12:40;8.35;;;6.15;;
21018;SDS011;10667;51.056;3.732;2023-12-04T07:15:07;9.00;;;5.88;;
21018;SDS011;10667;51.056;3.732;2023-12-04T07:17:34;14.07;;;5.47;;
21018;SDS011;10667;51.056;3.732;2023-12-04T07:20:00;11.13;;;5.82;;
21018;SDS011;10667;51.056;3.732;2023-12-04T07:22:25;8.30;;;5.70;;
21018;SDS011;10667;51.056;3.732;2023-12-04T07:24:51;15.98;;;6.70;;
21018;SDS011;10667;51.056;3.732;2023-12-04T07:27:17;8.82;;;5.75;;
21018;SDS011;10667;51.056;3.732;2023-12-04T07:29:42;9.68;;;5.45;;
21018;SDS011;10667;51.056;3.732;2023-12-04T07:32:08;8.80;;;5.53;;
21018;SDS011;10667;51.056;3.732;2023-12-04T07:34:34;7.15;;;5.03;;
21018;SDS011;10667;51.056;3.732;2023-12-04T07:36:59;8.93;;;6.07;;
21018;SDS011;10667;51.056;3.732;2023-12-04T07:39:25;9.18;;;5.55;;
21018;SDS011;10667;51.056;3.732;2023-12-04T07:41:51;9.82;;;6.60;;
21018;SDS011;10667;51.056;3.732;2023-12-04T07:44:17;11.50;;;6.70;;
21018;SDS011;10667;51.056;3.732;2023-12-04T07:46:43;10.38;;;6.25;;
21018;SDS011;10667;51.056;3.732;2023-12-04T07:49:09;8.65;;;5.95;;
21018;SDS011;10667;51.056;3.732;2023-12-04T07:51:34;11.35;;;6.00;;
21018;SDS011;10667;51.056;3.732;2023-12-04T07:54:00;11.63;;;6.65;;
21018;SDS011;10667;51.056;3.732;2023-12-04T07:56:26;9.05;;;6.10;;
21018;SDS011;10667;51.056;3.732;2023-12-04T07:58:51;10.73;;;6.47;;
21018;SDS011;10667;51.056;3.732;2023-12-04T08:01:17;10.90;;;6.40;;
21018;SDS011;10667;51.056;3.732;2023-12-04T08:03:43;9.48;;;6.22;;
21018;SDS011;10667;51.056;3.732;2023-12-04T08:06:09;9.88;;;6.55;;
21018;SDS011;10667;51.056;3.732;2023-12-04T08:08:34;8.65;;;6.28;;
21018;SDS011;10667;51.056;3.732;2023-12-04T08:11:00;10.20;;;5.82;;
21018;SDS011;10667;51.056;3.732;2023-12-04T08:13:25;10.13;;;6.30;;
21018;SDS011;10667;51.056;3.732;2023-12-04T08:15:51;9.43;;;6.95;;
21018;SDS011;10667;51.056;3.732;2023-12-04T08:18:17;9.65;;;6.20;;
21018;SDS011;10667;51.056;3.732;2023-12-04T08:20:42;11.25;;;6.85;;
21018;SDS011;10667;51.056;3.732;2023-12-04T08:23:08;9.02;;;6.30;;
21018;SDS011;10667;51.056;3.732;2023-12-04T08:25:34;10.13;;;5.68;;
21018;SDS011;10667;51.056;3.732;2023-12-04T08:28:03;8.63;;;5.70;;
21018;SDS011;10667;51.056;3.732;2023-12-04T08:30:29;8.20;;;6.30;;
21018;SDS011;10667;51.056;3.732;2023-12-04T08:32:55;10.95;;;6.43;;
21018;SDS011;10667;51.056;3.732;2023-12-04T08:35:20;9.40;;;6.43;;
21018;SDS011;10667;51.056;3.732;2023-12-04T08:37:47;10.35;;;7.00;;
21018;SDS011;10667;51.056;3.732;2023-12-04T08:40:12;9.32;;;6.35;;
21018;SDS011;10667;51.056;3.732;2023-12-04T08:42:38;9.73;;;6.78;;
21018;SDS011;10667;51.056;3.732;2023-12-04T08:45:04;10.48;;;7.15;;
21018;SDS011;10667;51.056;3.732;2023-12-04T08:47:31;12.00;;;6.72;;
21018;SDS011;10667;51.056;3.732;2023-12-04T08:49:57;9.18;;;6.35;;
21018;SDS011;10667;51.056;3.732;2023-12-04T08:52:24;9.43;;;6.80;;
21018;SDS011;10667;51.056;3.732;2023-12-04T08:54:50;12.52;;;8.20;;
21018;SDS011;10667;51.056;3.732;2023-12-04T08:57:16;12.80;;;6.97;;
21018;SDS011;10667;51.056;3.732;2023-12-04T08:59:41;12.57;;;6.03;;
21018;SDS011;10667;51.056;3.732;2023-12-04T09:02:07;9.60;;;6.35;;
21018;SDS011;10667;51.056;3.732;2023-12-04T09:04:33;10.00;;;6.50;;
21018;SDS011;10667;51.056;3.732;2023-12-04T09:06:59;11.27;;;6.47;;
21018;SDS011;10667;51.056;3.732;2023-12-04T09:09:24;8.95;;;6.30;;
21018;SDS011;10667;51.056;3.732;2023-12-04T09:11:50;8.85;;;6.40;;
21018;SDS011;10667;51.056;3.732;2023-12-04T09:14:15;10.85;;;6.75;;
21018;SDS011;10667;51.056;3.732;2023-12-04T09:16:41;11.25;;;6.93;;
21018;SDS011;10667;51.056;3.732;2023-12-04T09:19:07;9.90;;;6.63;;
21018;SDS011;10667;51.056;3.732;2023-12-04T09:21:35;9.23;;;6.50;;
21018;SDS011;10667;51.056;3.732;2023-12-04T09:24:01;8.07;;;6.50;;
21018;SDS011;10667;51.056;3.732;2023-12-04T09:26:26;8.90;;;6.18;;
21018;SDS011;10667;51.056;3.732;2023-12-04T09:28:52;9.02;;;6.35;;
21018;SDS011;10667;51.056;3.732;2023-12-04T09:31:18;9.13;;;6.03;;
21018;SDS011;10667;51.056;3.732;2023-12-04T09:33:44;10.55;;;6.50;;
21018;SDS011;10667;51.056;3.732;2023-12-04T09:36:10;9.32;;;6.50;;
21018;SDS011;10667;51.056;3.732;2023-12-04T09:38:36;8.75;;;6.68;;
21018;SDS011;10667;51.056;3.732;2023-12-04T09:41:01;8.23;;;6.38;;
21018;SDS011;10667;51.056;3.732;2023-12-04T09:43:29;8.18;;;6.00;;
21018;SDS011;10667;51.056;3.732;2023-12-04T09:45:57;9.43;;;6.35;;
21018;SDS011;10667;51.056;3.732;2023-12-04T09:48:24;9.05;;;6.32;;
21018;SDS011;10667;51.056;3.732;2023-12-04T09:50:52;10.35;;;6.55;;
21018;SDS011;10667;51.056;3.732;2023-12-04T09:53:18;12.98;;;6.40;;
21018;SDS011;10667;51.056;3.732;2023-12-04T09:55:47;12.45;;;6.63;;
21018;SDS011;10667;51.056;3.732;2023-12-04T09:58:18;9.68;;;6.65;;
21018;SDS011;10667;51.056;3.732;2023-12-04T10:00:45;12.48;;;7.13;;
21018;SDS011;10667;51.056;3.732;2023-12-04T10:03:11;9.65;;;6.65;;
21018;SDS011;10667;51.056;3.732;2023-12-04T10:05:40;10.15;;;6.72;;
21018;SDS011;10667;51.056;3.732;2023-12-04T10:08:08;8.80;;;6.55;;
21018;SDS011;10667;51.056;3.732;2023-12-04T10:10:34;10.35;;;6.53;;
21018;SDS011;10667;51.056;3.732;2023-12-04T10:13:00;9.82;;;6.93;;
21018;SDS011;10667;51.056;3.732;2023-12-04T10:15:26;12.18;;;6.38;;
21018;SDS011;10667;51.056;3.732;2023-12-04T10:17:51;10.43;;;6.25;;
21018;SDS011;10667;51.056;3.732;2023-12-04T10:20:19;10.10;;;6.55;;
21018;SDS011;10667;51.056;3.732;2023-12-04T10:22:53;10.77;;;7.53;;
21018;SDS011;10667;51.056;3.732;2023-12-04T10:25:24;15.32;;;6.40;;
21018;SDS011;10667;51.056;3.732;2023-12-04T10:27:52;10.30;;;6.80;;
21018;SDS011;10667;51.056;3.732;2023-12-04T10:30:28;10.60;;;7.20;;
21018;SDS011;10667;51.056;3.732;2023-12-04T10:33:01;12.07;;;6.72;;
21018;SDS011;10667;51.056;3.732;2023-12-04T10:35:30;10.05;;;6.93;;
21018;SDS011;10667;51.056;3.732;2023-12-04T10:38:02;10.68;;;6.80;;
21018;SDS011;10667;51.056;3.732;2023-12-04T10:40:29;10.00;;;6.63;;
21018;SDS011;10667;51.056;3.732;2023-12-04T10:43:17;13.20;;;7.50;;
21018;SDS011;10667;51.056;3.732;2023-12-04T10:45:47;11.00;;;7.25;;
21018;SDS011;10667;51.056;3.732;2023-12-04T10:48:14;12.75;;;7.65;;
21018;SDS011;10667;51.056;3.732;2023-12-04T10:50:45;10.57;;;7.50;;
21018;SDS011;10667;51.056;3.732;2023-12-04T10:53:12;11.85;;;7.40;;
21018;SDS011;10667;51.056;3.732;2023-12-04T10:55:39;9.00;;;6.68;;
21018;SDS011;10667;51.056;3.732;2023-12-04T10:58:09;11.23;;;6.65;;
21018;SDS011;10667;51.056;3.732;2023-12-04T11:00:40;11.90;;;6.60;;
21018;SDS011;10667;51.056;3.732;2023-12-04T11:03:15;11.63;;;7.65;;
21018;SDS011;10667;51.056;3.732;2023-12-04T11:05:49;13.15;;;7.40;;
21018;SDS011;10667;51.056;3.732;2023-12-04T11:08:19;8.75;;;6.18;;
21018;SDS011;10667;51.056;3.732;2023-12-04T11:10:54;10.27;;;7.20;;
21018;SDS011;10667;51.056;3.732;2023-12-04T11:13:25;10.23;;;6.70;;
21018;SDS011;10667;51.056;3.732;2023-12-04T11:15:53;10.52;;;7.10;;
21018;SDS011;10667;51.056;3.732;2023-12-04T11:18:25;10.70;;;7.28;;
21018;SDS011;10667;51.056;3.732;2023-12-04T11:20:59;11.27;;;7.05;;
21018;SDS011;10667;51.056;3.732;2023-12-04T11:23:31;12.88;;;7.13;;
21018;SDS011;10667;51.056;3.732;2023-12-04T11:25:58;10.75;;;7.05;;
21018;SDS011;10667;51.056;3.732;2023-12-04T11:28:25;11.95;;;6.88;;
21018;SDS011;10667;51.056;3.732;2023-12-04T11:30:52;10.25;;;6.80;;
21018;SDS011;10667;51.056;3.732;2023-12-04T11:33:19;10.25;;;6.90;;
21018;SDS011;10667;51.056;3.732;2023-12-04T11:35:45;11.85;;;7.10;;
21018;SDS011;10667;51.056;3.732;2023-12-04T11:38:14;10.63;;;6.70;;
21018;SDS011;10667;51.056;3.732;2023-12-04T11:40:41;9.55;;;7.28;;
21018;SDS011;10667;51.056;3.732;2023-12-04T11:43:26;9.07;;;6.20;;
21018;SDS011;10667;51.056;3.732;2023-12-04T11:46:06;11.40;;;7.40;;
21018;SDS011;10667;51.056;3.732;2023-12-04T11:48:38;10.05;;;7.28;;
21018;SDS011;10667;51.056;3.732;2023-12-04T11:51:07;9.43;;;6.75;;
21018;SDS011;10667;51.056;3.732;2023-12-04T11:53:39;12.63;;;6.97;;
21018;SDS011;10667;51.056;3.732;2023-12-04T11:56:09;11.02;;;6.65;;
21018;SDS011;10667;51.056;3.732;2023-12-04T11:58:45;9.82;;;6.65;;
21018;SDS011;10667;51.056;3.732;2023-12-04T12:01:12;8.73;;;6.50;;
21018;SDS011;10667;51.056;3.732;2023-12-04T12:03:38;10.05;;;7.25;;
21018;SDS011;10667;51.056;3.732;2023-12-04T12:06:04;10.15;;;6.95;;
21018;SDS011;10667;51.056;3.732;2023-12-04T12:08:30;10.32;;;6.75;;
21018;SDS011;10667;51.056;3.732;2023-12-04T12:10:56;10.95;;;6.75;;
21018;SDS011;10667;51.056;3.732;2023-12-04T12:13:22;10.02;;;6.88;;
21018;SDS011;10667;51.056;3.732;2023-12-04T12:15:51;8.95;;;6.45;;
21018;SDS011;10667;51.056;3.732;2023-12-04T12:18:17;9.80;;;6.20;;
21018;SDS011;10667;51.056;3.732;2023-12-04T12:20:42;8.90;;;6.47;;
21018;SDS011;10667;51.056;3.732;2023-12-04T12:23:08;9.45;;;5.80;;
21018;SDS011;10667;51.056;3.732;2023-12-04T12:25:36;9.73;;;6.53;;
21018;SDS011;10667;51.056;3.732;2023-12-04T12:28:04;10.07;;;6.32;;
21018;SDS011;10667;51.056;3.732;2023-12-04T12:30:30;9.40;;;6.40;;
21018;SDS011;10667;51.056;3.732;2023-12-04T12:32:56;7.32;;;5.78;;
21018;SDS011;10667;51.056;3.732;2023-12-04T12:35:22;8.95;;;6.10;;
21018;SDS011;10667;51.056;3.732;2023-12-04T12:37:48;10.32;;;6.45;;
21018;SDS011;10667;51.056;3.732;2023-12-04T12:40:18;8.05;;;6.03;;
21018;SDS011;10667;51.056;3.732;2023-12-04T12:42:45;9.27;;;6.03;;
21018;SDS011;10667;51.056;3.732;2023-12-04T12:45:10;11.38;;;6.15;;
21018;SDS011;10667;51.056;3.732;2023-12-04T12:47:37;8.55;;;6.20;;
21018;SDS011;10667;51.056;3.732;2023-12-04T12:50:03;7.88;;;5.90;;
21018;SDS011;10667;51.056;3.732;2023-12-04T12:52:32;7.82;;;5.80;;
21018;SDS011;10667;51.056;3.732;2023-12-04T12:54:58;8.52;;;5.85;;
21018;SDS011;10667;51.056;3.732;2023-12-04T12:57:24;9.90;;;6.03;;
21018;SDS011;10667;51.056;3.732;2023-12-04T12:59:50;8.00;;;5.72;;
21018;SDS011;10667;51.056;3.732;2023-12-04T13:02:16;7.43;;;5.70;;
21018;SDS011;10667;51.056;3.732;2023-12-04T13:04:42;7.43;;;5.93;;
21018;SDS011;10667;51.056;3.732;2023-12-04T13:07:09;7.05;;;5.40;;
21018;SDS011;10667;51.056;3.732;2023-12-04T13:09:35;8.70;;;6.00;;
21018;SDS011;10667;51.056;3.732;2023-12-04T13:12:02;8.60;;;5.93;;
21018;SDS011;10667;51.056;3.732;2023-12-04T13:14:28;8.07;;;5.65;;
21018;SDS011;10667;51.056;3.732;2023-12-04T13:16:53;5.60;;;4.88;;
21018;SDS011;10667;51.056;3.732;2023-12-04T13:19:22;7.60;;;5.40;;
21018;SDS011;10667;51.056;3.732;2023-12-04T13:21:49;5.85;;;4.53;;
21018;SDS011;10667;51.056;3.732;2023-12-04T13:24:15;8.05;;;5.18;;
21018;SDS011;10667;51.056;3.732;2023-12-04T13:26:41;7.15;;;5.00;;
21018;SDS011;10667;51.056;3.732;2023-12-04T13:29:06;7.07;;;5.53;;
21018;SDS011;10667;51.056;3.732;2023-12-04T13:31:35;8.75;;;5.40;;
21018;SDS011;10667;51.056;3.732;2023-12-04T13:34:01;7.07;;;5.50;;
21018;SDS011;10667;51.056;3.732;2023-12-04T13:36:28;11.15;;;6.30;;
21018;SDS011;10667;51.056;3.732;2023-12-04T13:38:54;7.72;;;5.72;;
21018;SDS011;10667;51.056;3.732;2023-12-04T13:41:19;6.15;;;5.10;;
21018;SDS011;10667;51.056;3.732;2023-12-04T13:44:03;6.97;;;5.40;;
21018;SDS011;10667;51.056;3.732;2023-12-04T13:46:29;6.47;;;5.65;;
21018;SDS011;10667;51.056;3.732;2023-12-04T13:48:55;6.68;;;5.00;;
21018;SDS011;10667;51.056;3.732;2023-12-04T13:51:21;9.32;;;5.55;;
21018;SDS011;10667;51.056;3.732;2023-12-04T13:53:47;8.70;;;5.63;;
21018;SDS011;10667;51.056;3.732;2023-12-04T13:56:15;8.43;;;5.55;;
21018;SDS011;10667;51.056;3.732;2023-12-04T13:58:41;6.88;;;5.25;;
21018;SDS011;10667;51.056;3.732;2023-12-04T14:01:10;9.82;;;7.30;;
21018;SDS011;10667;51.056;3.732;2023-12-04T14:03:40;8.23;;;5.82;;
21018;SDS011;10667;51.056;3.732;2023-12-04T14:06:07;8.23;;;5.10;;
21018;SDS011;10667;51.056;3.732;2023-12-04T14:08:33;7.22;;;5.68;;
21018;SDS011;10667;51.056;3.732;2023-12-04T14:10:59;8.02;;;6.28;;
21018;SDS011;10667;51.056;3.732;2023-12-04T14:13:24;8.88;;;5.60;;
21018;SDS011;10667;51.056;3.732;2023-12-04T14:15:50;12.30;;;6.50;;
21018;SDS011;10667;51.056;3.732;2023-12-04T14:18:16;13.02;;;6.05;;
21018;SDS011;10667;51.056;3.732;2023-12-04T14:20:41;8.13;;;5.75;;
21018;SDS011;10667;51.056;3.732;2023-12-04T14:23:07;7.97;;;6.03;;
21018;SDS011;10667;51.056;3.732;2023-12-04T14:25:33;9.38;;;5.97;;
21018;SDS011;10667;51.056;3.732;2023-12-04T14:27:59;10.40;;;7.93;;
21018;SDS011;10667;51.056;3.732;2023-12-04T14:30:26;9.43;;;6.38;;
21018;SDS011;10667;51.056;3.732;2023-12-04T14:32:52;8.63;;;6.40;;
21018;SDS011;10667;51.056;3.732;2023-12-04T14:35:18;8.27;;;6.53;;
21018;SDS011;10667;51.056;3.732;2023-12-04T14:37:43;11.35;;;6.90;;